createdAt,value
2022-11-24T06:00:29.512Z,4.20
2022-11-24T06:02:59.927Z,5.07
2022-11-24T06:05:28.363Z,3.63
2022-11-24T06:07:55.444Z,4.95
2022-11-24T06:10:24.254Z,4.90
2022-11-24T06:12:51.030Z,4.05
2022-11-24T06:15:17.932Z,4.05
2022-11-24T06:17:44.686Z,3.58
2022-11-24T06:20:12.041Z,4.20
2022-11-24T06:22:38.620Z,3.90
2022-11-24T06:25:06.154Z,3.55
2022-11-24T06:27:32.720Z,4.25
2022-11-24T06:29:59.917Z,3.08
2022-11-24T06:32:26.502Z,4.07
2022-11-24T06:34:53.642Z,3.83
2022-11-24T06:37:20.202Z,3.35
2022-11-24T06:39:47.373Z,3.88
2022-11-24T06:42:14.010Z,4.07
2022-11-24T06:44:41.930Z,4.07
2022-11-24T06:47:08.507Z,4.22
2022-11-24T06:49:35.652Z,4.53
2022-11-24T06:52:02.215Z,3.90
2022-11-24T06:54:29.405Z,4.43
2022-11-24T06:56:57.483Z,4.55
2022-11-24T06:59:25.335Z,4.10
2022-11-24T07:01:52.412Z,4.03
2022-11-24T07:04:20.308Z,4.03
2022-11-24T07:06:46.894Z,4.30
2022-11-24T07:09:15.120Z,4.30
2022-11-24T07:11:42.161Z,4.45
2022-11-24T07:14:09.973Z,4.72
2022-11-24T07:16:37.969Z,4.95
2022-11-24T07:19:04.563Z,4.35
2022-11-24T07:21:31.802Z,4.65
2022-11-24T07:23:58.710Z,4.22
2022-11-24T07:26:26.871Z,4.32
2022-11-24T07:28:53.736Z,4.38
2022-11-24T07:31:25.271Z,3.95
2022-11-24T07:33:54.104Z,4.38
2022-11-24T07:36:22.422Z,4.70
2022-11-24T07:38:48.989Z,4.43
2022-11-24T07:41:17.750Z,4.55
2022-11-24T07:43:44.290Z,3.50
2022-11-24T07:46:13.604Z,4.38
2022-11-24T07:48:40.546Z,4.20
2022-11-24T07:51:08.598Z,5.00
2022-11-24T07:53:36.051Z,4.75
2022-11-24T07:56:04.786Z,4.07
2022-11-24T07:58:33.544Z,3.60
2022-11-24T08:01:10.496Z,3.92
2022-11-24T08:03:37.253Z,3.63
2022-11-24T08:08:51.404Z,5.65
2022-11-24T08:11:18.128Z,4.72
2022-11-24T08:13:45.380Z,5.13
2022-11-24T08:16:15.028Z,4.47
2022-11-24T08:18:42.735Z,6.25
2022-11-24T08:21:13.956Z,5.03
2022-11-24T08:23:42.108Z,4.30
2022-11-24T08:26:15.851Z,4.53
2022-11-24T08:28:45.776Z,3.95
2022-11-24T08:31:15.411Z,4.20
2022-11-24T08:33:43.081Z,5.50
2022-11-24T08:36:15.716Z,3.70
2022-11-24T08:38:43.234Z,4.80
2022-11-24T08:41:13.390Z,4.80
2022-11-24T08:43:41.056Z,5.18
2022-11-24T08:46:10.946Z,6.05
2022-11-24T08:48:38.641Z,5.32
2022-11-24T08:51:13.274Z,5.72
2022-11-24T08:53:42.077Z,5.15
2022-11-24T08:56:10.670Z,6.35
2022-11-24T08:58:37.899Z,4.05
2022-11-24T09:01:14.080Z,4.88
2022-11-24T09:03:46.605Z,6.13
2022-11-24T09:06:23.269Z,4.28
2022-11-24T09:08:54.761Z,5.32
2022-11-24T09:11:22.862Z,5.47
2022-11-24T09:13:50.285Z,4.55
2022-11-24T09:16:19.752Z,6.75
2022-11-24T09:21:18.659Z,6.55
2022-11-24T09:23:51.227Z,5.20
2022-11-24T09:26:24.180Z,4.85
2022-11-24T09:28:54.773Z,4.80
2022-11-24T09:31:24.139Z,4.93
2022-11-24T09:36:18.783Z,4.22
2022-11-24T09:38:46.088Z,4.75
2022-11-24T09:41:35.407Z,5.05
2022-11-24T09:44:31.295Z,4.65
2022-11-24T09:47:00.921Z,4.28
2022-11-24T09:49:33.898Z,5.25
2022-11-24T09:52:04.423Z,5.20
2022-11-24T09:54:35.888Z,4.90
2022-11-24T09:57:05.801Z,3.83
2022-11-24T09:59:33.340Z,4.20
2022-11-24T10:02:00.315Z,4.65
2022-11-24T10:04:37.514Z,4.47
2022-11-24T10:07:28.021Z,4.43
2022-11-24T10:10:21.196Z,5.30
2022-11-24T10:13:25.092Z,3.53
2022-11-24T10:16:42.685Z,5.07
2022-11-24T10:19:48.681Z,5.50
2022-11-24T10:22:38.253Z,4.15
2022-11-24T10:25:42.761Z,4.35
2022-11-24T10:28:14.084Z,4.00
2022-11-24T10:30:41.909Z,4.57
2022-11-24T10:33:18.581Z,4.30
2022-11-24T10:36:09.700Z,4.60
2022-11-24T10:38:48.861Z,4.93
2022-11-24T10:41:24.595Z,4.32
2022-11-24T10:43:52.493Z,3.88
2022-11-24T10:46:28.440Z,3.55
2022-11-24T10:49:05.501Z,6.03
2022-11-24T10:51:44.264Z,5.22
2022-11-24T10:54:17.850Z,6.18
2022-11-24T10:56:46.275Z,4.32
2022-11-24T10:59:25.654Z,5.18
2022-11-24T11:01:53.046Z,4.38
2022-11-24T11:04:34.783Z,5.18
2022-11-24T11:07:20.325Z,4.68
2022-11-24T11:09:48.708Z,5.28
2022-11-24T11:12:43.808Z,5.60
2022-11-24T11:15:31.444Z,5.03
2022-11-24T11:18:00.893Z,5.63
2022-11-24T11:20:30.226Z,7.00
2022-11-24T11:22:59.238Z,5.88
2022-11-24T11:25:32.931Z,5.95
2022-11-24T11:28:18.315Z,6.03
2022-11-24T11:34:14.430Z,6.00
2022-11-24T11:36:48.630Z,4.38
2022-11-24T11:39:25.304Z,4.63
2022-11-24T11:42:06.839Z,4.47
2022-11-24T11:44:44.026Z,5.85
2022-11-24T11:47:36.289Z,5.00
2022-11-24T11:50:03.232Z,5.25
2022-11-24T11:52:54.323Z,8.93
2022-11-24T11:55:36.966Z,7.95
2022-11-24T11:58:17.403Z,8.48
2022-11-24T12:01:01.300Z,7.78
2022-11-24T12:03:34.565Z,8.00
2022-11-24T12:06:10.945Z,6.82
2022-11-24T12:09:19.793Z,8.25
2022-11-24T12:12:10.365Z,7.57
2022-11-24T12:14:59.480Z,7.07
2022-11-24T12:17:40.136Z,7.68
2022-11-24T12:20:24.437Z,7.20
2022-11-24T12:23:11.165Z,6.78
2022-11-24T12:26:01.127Z,8.50
2022-11-24T12:31:07.446Z,9.07
2022-11-24T12:34:01.496Z,8.40
2022-11-24T12:36:40.877Z,10.20
2022-11-24T12:39:24.706Z,8.60
2022-11-24T12:42:05.827Z,8.95
2022-11-24T12:44:52.994Z,9.23
2022-11-24T12:47:29.770Z,10.10
2022-11-24T12:50:19.587Z,10.27
2022-11-24T12:53:27.130Z,10.57
2022-11-24T12:55:58.047Z,8.75
2022-11-24T12:58:40.434Z,10.65
2022-11-24T13:01:51.827Z,9.50
2022-11-24T13:04:29.517Z,10.00
2022-11-24T13:07:11.415Z,12.02
2022-11-24T13:09:38.221Z,13.90
2022-11-24T13:12:13.535Z,12.88
2022-11-24T13:14:44.127Z,12.52
2022-11-24T13:17:59.460Z,11.15
2022-11-24T13:20:34.235Z,9.20
2022-11-24T13:23:03.326Z,8.30
2022-11-24T13:25:33.953Z,8.10
2022-11-24T13:28:02.594Z,9.65
2022-11-24T13:30:35.841Z,8.45
2022-11-24T13:33:16.146Z,8.70
2022-11-24T13:36:02.212Z,7.55
2022-11-24T13:38:54.084Z,7.95
2022-11-24T13:41:33.490Z,8.40
2022-11-24T13:44:15.288Z,8.63
2022-11-24T13:47:22.610Z,8.55
2022-11-24T13:49:50.211Z,9.32
2022-11-24T13:52:36.250Z,9.43
2022-11-24T13:55:10.039Z,7.95
2022-11-24T13:57:44.084Z,7.30
2022-11-24T14:00:34.729Z,7.78
2022-11-24T14:03:16.443Z,6.10
2022-11-24T14:05:52.993Z,8.90
2022-11-24T14:08:34.114Z,9.57
2022-11-24T14:11:04.478Z,8.27
2022-11-24T14:13:35.029Z,8.40
2022-11-24T14:16:10.048Z,9.30
2022-11-24T14:18:39.534Z,8.18
2022-11-24T14:24:00.689Z,9.70
2022-11-24T14:26:40.842Z,6.70
2022-11-24T14:31:42.725Z,7.63
2022-11-24T14:34:12.840Z,6.80
2022-11-24T14:36:40.526Z,6.57
2022-11-24T14:39:11.011Z,7.32
2022-11-24T14:41:38.418Z,8.32
2022-11-24T14:44:15.208Z,7.50
2022-11-24T14:46:42.667Z,7.25
2022-11-24T14:49:09.574Z,8.20
2022-11-24T14:51:42.591Z,8.52
2022-11-24T14:54:19.439Z,8.18
2022-11-24T14:57:26.891Z,7.68
2022-11-24T15:00:12.336Z,7.60
2022-11-24T15:02:51.127Z,7.47
2022-11-24T15:05:20.789Z,7.72
2022-11-24T15:07:49.497Z,7.78
2022-11-24T15:10:45.896Z,7.35
2022-11-24T15:13:19.878Z,7.63
2022-11-24T15:16:02.875Z,7.70
2022-11-24T15:18:37.766Z,7.88
2022-11-24T15:21:05.048Z,8.50
2022-11-24T15:23:36.102Z,7.78
2022-11-24T15:26:03.232Z,7.38
2022-11-24T15:28:31.172Z,7.30
2022-11-24T15:31:12.803Z,7.43
2022-11-24T15:33:41.011Z,7.47
2022-11-24T15:36:07.911Z,7.63
2022-11-24T15:38:34.457Z,8.55
2022-11-24T15:41:01.958Z,7.90
2022-11-24T15:43:41.315Z,7.03
2022-11-24T15:46:08.984Z,7.53
2022-11-24T15:48:35.569Z,7.15
2022-11-24T15:51:04.656Z,6.82
2022-11-24T15:53:37.627Z,6.90
2022-11-24T15:56:08.771Z,7.55
2022-11-24T15:58:35.310Z,7.35
2022-11-24T16:01:02.437Z,6.60
2022-11-24T16:06:25.257Z,6.70
2022-11-24T16:08:53.068Z,6.85
2022-11-24T16:11:20.664Z,7.25
2022-11-24T16:13:52.369Z,9.43
2022-11-24T16:16:21.277Z,8.98
2022-11-24T16:18:47.894Z,9.50
2022-11-24T16:21:15.199Z,8.80
2022-11-24T16:23:41.806Z,10.57
2022-11-24T16:26:09.974Z,9.38
2022-11-24T16:28:36.582Z,8.93
2022-11-24T16:31:04.037Z,7.82
2022-11-24T16:33:31.175Z,7.55
2022-11-24T16:35:58.904Z,8.45
2022-11-24T16:38:25.423Z,6.65
2022-11-24T16:40:54.433Z,7.05
2022-11-24T16:43:21.127Z,7.82
2022-11-24T16:46:21.347Z,8.68
2022-11-24T16:48:50.371Z,9.95
2022-11-24T16:51:19.197Z,9.07
2022-11-24T16:53:45.912Z,9.23
2022-11-24T16:56:14.676Z,9.02
2022-11-24T16:58:42.061Z,8.87
2022-11-24T17:01:11.248Z,8.70
2022-11-24T17:03:38.960Z,8.75
2022-11-24T17:06:12.081Z,9.40
2022-11-24T17:08:40.101Z,8.93
2022-11-24T17:11:15.702Z,11.98
2022-11-24T17:13:43.497Z,11.50
2022-11-24T17:16:13.066Z,9.90
2022-11-24T17:18:40.322Z,11.23
2022-11-24T17:21:12.011Z,11.02
2022-11-24T17:23:38.766Z,11.18
2022-11-24T17:26:08.960Z,11.10
2022-11-24T17:28:36.113Z,11.63
2022-11-24T17:31:27.537Z,10.60
2022-11-24T17:33:56.411Z,10.82
2022-11-24T17:36:24.279Z,10.85
2022-11-24T17:38:51.098Z,10.05
2022-11-24T17:41:19.511Z,9.95
2022-11-24T17:43:50.458Z,10.77
2022-11-24T17:46:17.884Z,10.07
2022-11-24T17:48:44.570Z,11.25
2022-11-24T17:51:14.203Z,11.02
2022-11-24T17:53:42.577Z,12.43
2022-11-24T17:56:14.047Z,11.63
2022-11-24T17:58:43.081Z,11.45
2022-11-24T18:03:41.857Z,10.88
2022-11-24T18:06:17.126Z,11.52
2022-11-24T18:08:45.542Z,11.15
2022-11-24T18:11:16.582Z,11.65
2022-11-24T18:14:00.960Z,13.57
2022-11-24T18:16:30.652Z,11.05
2022-11-24T18:19:10.733Z,12.50
2022-11-24T18:21:40.926Z,14.20
2022-11-24T18:24:11.813Z,14.75
2022-11-24T18:26:40.790Z,18.50
2022-11-24T18:29:07.882Z,21.73
2022-11-24T18:31:36.135Z,22.40
2022-11-24T18:34:04.293Z,20.48
2022-11-24T18:36:32.145Z,19.27
2022-11-24T18:39:03.624Z,18.20
2022-11-24T18:41:30.984Z,17.05
2022-11-24T18:43:57.568Z,15.45
2022-11-24T18:46:24.790Z,13.90
2022-11-24T18:48:53.005Z,14.20
2022-11-24T18:51:20.377Z,13.43
2022-11-24T18:53:50.700Z,13.63
2022-11-24T18:56:18.136Z,12.85
2022-11-24T18:58:44.840Z,10.40
2022-11-24T19:01:14.536Z,12.50
2022-11-24T19:03:48.986Z,11.48
2022-11-24T19:06:20.696Z,11.95
2022-11-24T19:08:48.726Z,12.15
2022-11-24T19:11:24.331Z,10.15
2022-11-24T19:13:51.292Z,9.60
2022-11-24T19:16:20.139Z,11.82
2022-11-24T19:18:53.714Z,12.25
2022-11-24T19:21:22.733Z,8.73
2022-11-24T19:23:49.850Z,8.95
2022-11-24T19:26:19.190Z,10.40
2022-11-24T19:28:46.790Z,10.77
2022-11-24T19:31:15.428Z,9.75
2022-11-24T19:33:43.372Z,10.00
2022-11-24T19:36:18.639Z,8.85
2022-11-24T19:38:53.387Z,8.85
2022-11-24T19:41:22.909Z,9.10
2022-11-24T19:43:49.843Z,8.32
2022-11-24T19:46:18.229Z,9.30
2022-11-24T19:48:50.429Z,11.75
2022-11-24T19:51:30.959Z,9.57
2022-11-24T19:53:57.698Z,9.32
2022-11-24T19:56:28.009Z,9.30
2022-11-24T19:58:55.298Z,8.32
2022-11-24T20:01:34.173Z,7.90
2022-11-24T20:04:07.415Z,8.57
2022-11-24T20:06:39.743Z,8.63
2022-11-24T20:09:09.027Z,8.68
2022-11-24T20:11:36.802Z,8.45
2022-11-24T20:14:05.937Z,10.27
2022-11-24T20:16:34.865Z,9.93
2022-11-24T20:19:07.370Z,8.70
2022-11-24T20:21:36.749Z,9.27
2022-11-24T20:24:09.836Z,8.52
2022-11-24T20:26:52.191Z,8.45
2022-11-24T20:29:19.025Z,8.45
2022-11-24T20:31:48.655Z,8.32
2022-11-24T20:36:45.111Z,9.13
2022-11-24T20:39:20.808Z,8.00
2022-11-24T20:41:48.154Z,7.95
2022-11-24T20:44:17.202Z,7.32
2022-11-24T20:46:45.984Z,8.02
2022-11-24T20:49:15.504Z,9.40
2022-11-24T20:51:47.976Z,7.75
2022-11-24T20:54:16.986Z,7.80
2022-11-24T20:56:46.611Z,8.80
2022-11-24T20:59:18.859Z,5.88
2022-11-24T21:01:47.245Z,7.47
2022-11-24T21:04:18.338Z,7.22
2022-11-24T21:06:46.133Z,7.28
2022-11-24T21:09:12.724Z,7.07
2022-11-24T21:11:40.612Z,7.63
2022-11-24T21:14:08.432Z,7.78
2022-11-24T21:16:38.357Z,6.68
2022-11-24T21:21:35.502Z,6.47
2022-11-24T21:24:07.511Z,7.63
2022-11-24T21:26:37.078Z,6.53
2022-11-24T21:29:04.187Z,7.75
